Time;durP1;ratioP1;P1;durP2;ratioP2;P2;SDS_P1;SDS_P2;PMS_P1;PMS_P2;Temp;Humidity;BMP_temperature;BMP_pressure;BME280_temperature;BME280_humidity;BME280_pressure;Samples;Min_cycle;Max_cycle;Signal;HPM_P1;HPM_P2
2023/04/13 00:01:44;;;;;;;4.55;2.40;;;4.90;99.90;;;;;;4843474;29;20065;-77
2023/04/13 00:04:30;;;;;;;5.63;2.53;;;4.90;99.90;;;;;;4843106;29;20712;-77
2023/04/13 00:06:57;;;;;;;7.00;2.63;;;4.90;99.90;;;;;;4860885;29;20046;-77
2023/04/13 00:09:24;;;;;;;5.43;2.35;;;4.90;99.90;;;;;;4843448;29;20046;-77
2023/04/13 00:11:51;;;;;;;5.43;2.60;;;4.80;99.90;;;;;;4843410;29;20125;-77
2023/04/13 00:14:18;;;;;;;5.63;2.53;;;4.70;99.90;;;;;;4858403;29;20134;-77
2023/04/13 00:16:46;;;;;;;5.38;2.85;;;4.80;99.90;;;;;;4858230;29;20050;-77
2023/04/13 00:19:12;;;;;;;5.10;2.25;;;5.20;99.90;;;;;;4874949;29;20046;-77
2023/04/13 00:21:40;;;;;;;4.38;2.50;;;4.90;99.90;;;;;;4861681;29;20042;-77
2023/04/13 00:24:07;;;;;;;4.85;2.38;;;4.80;99.90;;;;;;4861811;29;20518;-78
2023/04/13 00:26:34;;;;;;;5.03;2.70;;;4.80;99.90;;;;;;4861542;29;20137;-77
2023/04/13 00:29:01;;;;;;;8.23;2.63;;;4.80;99.90;;;;;;4861726;29;20140;-78
2023/04/13 00:31:28;;;;;;;6.43;3.00;;;4.80;99.90;;;;;;4876874;29;20140;-78
2023/04/13 00:33:55;;;;;;;5.15;2.60;;;4.80;99.90;;;;;;4861763;29;20148;-77
2023/04/13 00:36:23;;;;;;;5.72;2.65;;;4.90;99.90;;;;;;4876930;29;20136;-77
2023/04/13 00:38:53;;;;;;;6.05;2.50;;;4.90;99.90;;;;;;4861509;29;20045;-78
2023/04/13 00:41:19;;;;;;;5.93;2.80;;;5.00;99.90;;;;;;4858285;29;20084;-77
2023/04/13 00:43:46;;;;;;;6.10;3.00;;;5.00;99.90;;;;;;4873634;29;20511;-77
2023/04/13 00:46:15;;;;;;;4.72;2.90;;;5.00;99.90;;;;;;4842980;29;20057;-77
2023/04/13 00:48:41;;;;;;;6.40;2.97;;;5.10;99.90;;;;;;4858315;29;20124;-77
2023/04/13 00:51:08;;;;;;;5.25;2.50;;;5.20;99.90;;;;;;4842254;29;20776;-78
2023/04/13 00:53:35;;;;;;;6.13;2.70;;;5.20;99.90;;;;;;4842863;29;20049;-77
2023/04/13 00:56:04;;;;;;;4.75;2.70;;;5.20;99.90;;;;;;4842592;29;20042;-78
2023/04/13 00:58:32;;;;;;;7.95;2.88;;;5.20;99.90;;;;;;4846319;29;20527;-77
2023/04/13 01:00:58;;;;;;;5.07;2.80;;;5.30;99.90;;;;;;4846402;29;20049;-77
2023/04/13 01:03:26;;;;;;;6.50;3.10;;;5.30;99.90;;;;;;4861028;29;20049;-77
2023/04/13 01:06:10;;;;;;;5.70;2.80;;;5.40;99.90;;;;;;4845810;29;20053;-77
2023/04/13 01:08:51;;;;;;;5.80;2.65;;;5.40;99.90;;;;;;4860852;29;20055;-78
2023/04/13 01:11:35;;;;;;;5.07;2.42;;;5.50;99.90;;;;;;4860592;29;20053;-77
2023/04/13 01:14:16;;;;;;;7.03;2.70;;;5.50;99.90;;;;;;4860792;29;20516;-78
2023/04/13 01:16:49;;;;;;;5.07;2.70;;;5.50;99.90;;;;;;4860726;29;20048;-77
2023/04/13 01:19:50;;;;;;;4.22;2.47;;;5.60;99.90;;;;;;4860560;29;20046;-78
2023/04/13 01:22:22;;;;;;;6.55;2.67;;;5.60;99.90;;;;;;4861707;29;20050;-78
2023/04/13 01:24:56;;;;;;;6.78;2.85;;;5.60;99.90;;;;;;4860759;29;20042;-77
2023/04/13 01:28:02;;;;;;;6.05;3.00;;;5.60;99.90;;;;;;4861653;29;20054;-77
2023/04/13 01:30:32;;;;;;;6.57;3.15;;;5.70;99.90;;;;;;4878546;29;20080;-77
2023/04/13 01:33:01;;;;;;;7.75;2.83;;;5.70;99.90;;;;;;4878834;29;20049;-77
2023/04/13 01:35:29;;;;;;;6.03;2.50;;;5.80;99.90;;;;;;4863717;29;20410;-77
2023/04/13 01:37:56;;;;;;;3.88;1.90;;;5.80;99.90;;;;;;4863945;29;20596;-78
2023/04/13 01:40:25;;;;;;;4.60;2.03;;;5.90;99.90;;;;;;4878681;29;20124;-78
2023/04/13 01:42:52;;;;;;;5.75;2.20;;;5.90;99.90;;;;;;4894136;29;20823;-77
2023/04/13 01:45:23;;;;;;;3.80;2.05;;;6.00;99.90;;;;;;4863327;29;20050;-77
2023/04/13 01:48:09;;;;;;;5.10;2.13;;;6.00;99.90;;;;;;4878592;29;20065;-77
2023/04/13 01:50:40;;;;;;;4.60;2.30;;;5.90;99.90;;;;;;4878549;29;20053;-77
2023/04/13 01:53:14;;;;;;;4.80;2.40;;;5.90;99.90;;;;;;4878407;29;20049;-77
2023/04/13 01:55:43;;;;;;;5.30;2.17;;;5.90;99.90;;;;;;4894064;29;20054;-77
2023/04/13 01:58:11;;;;;;;3.65;2.15;;;5.80;99.90;;;;;;4863180;29;20041;-78
2023/04/13 02:00:40;;;;;;;5.57;2.20;;;5.80;99.90;;;;;;4878678;29;20045;-77
2023/04/13 02:03:08;;;;;;;5.07;2.30;;;5.80;99.90;;;;;;4893962;29;20052;-77
2023/04/13 02:05:35;;;;;;;6.15;2.30;;;5.80;99.90;;;;;;4863024;29;20794;-77
2023/04/13 02:08:04;;;;;;;3.85;2.13;;;5.80;99.90;;;;;;4878313;29;20165;-77
2023/04/13 02:10:33;;;;;;;4.93;2.38;;;5.70;99.90;;;;;;4863011;29;20041;-77
2023/04/13 02:13:00;;;;;;;7.32;2.60;;;5.70;99.90;;;;;;4893597;29;20045;-78
2023/04/13 02:15:27;;;;;;;3.95;1.92;;;5.60;99.90;;;;;;4877833;29;20440;-77
2023/04/13 02:17:54;;;;;;;3.50;1.85;;;5.60;99.90;;;;;;4878529;29;20038;-77
2023/04/13 02:20:20;;;;;;;5.78;2.42;;;5.60;99.90;;;;;;4877896;29;20181;-78
2023/04/13 02:22:47;;;;;;;4.90;2.00;;;5.60;99.90;;;;;;4878113;29;20128;-77
2023/04/13 02:25:14;;;;;;;4.82;2.10;;;5.60;99.90;;;;;;4877947;29;20057;-78
2023/04/13 02:27:41;;;;;;;4.60;2.13;;;5.70;99.90;;;;;;4859664;29;20071;-77
2023/04/13 02:30:09;;;;;;;5.50;2.10;;;5.50;99.90;;;;;;4844521;29;20046;-77
2023/04/13 02:32:39;;;;;;;5.45;2.03;;;5.60;99.90;;;;;;4859430;29;20085;-78
2023/04/13 02:35:10;;;;;;;8.35;2.13;;;5.50;99.90;;;;;;4860232;29;20050;-77
2023/04/13 02:37:40;;;;;;;5.53;2.15;;;5.50;99.90;;;;;;4867959;29;20571;-78
2023/04/13 02:40:11;;;;;;;6.18;2.40;;;5.50;99.90;;;;;;4874565;29;20042;-78
2023/04/13 02:42:38;;;;;;;4.53;2.28;;;5.50;99.90;;;;;;4874612;29;20056;-78
2023/04/13 02:45:06;;;;;;;5.03;2.40;;;5.60;99.90;;;;;;4874466;29;20499;-78
2023/04/13 02:47:33;;;;;;;5.63;2.22;;;5.50;99.90;;;;;;4856357;29;20072;-78
2023/04/13 02:50:01;;;;;;;4.95;2.60;;;5.50;99.90;;;;;;4844222;29;20045;-78
2023/04/13 02:52:27;;;;;;;5.30;2.25;;;5.50;99.90;;;;;;4843716;29;20060;-78
2023/04/13 02:54:54;;;;;;;6.82;2.20;;;5.50;99.90;;;;;;4859396;29;20041;-78
2023/04/13 02:57:21;;;;;;;8.25;2.75;;;5.50;99.90;;;;;;4860853;29;20148;-78
2023/04/13 02:59:48;;;;;;;4.75;2.25;;;5.50;99.90;;;;;;4877702;29;20537;-78
2023/04/13 03:02:16;;;;;;;5.65;2.40;;;5.50;99.90;;;;;;4877301;29;20041;-78
2023/04/13 03:04:44;;;;;;;4.25;2.40;;;5.50;99.90;;;;;;4862262;29;20045;-78
2023/04/13 03:07:13;;;;;;;4.93;2.78;;;5.50;99.90;;;;;;4862282;29;20045;-78
2023/04/13 03:09:40;;;;;;;5.97;2.65;;;5.70;99.90;;;;;;4877414;29;20045;-78
2023/04/13 03:12:08;;;;;;;7.00;2.60;;;5.60;99.90;;;;;;4862310;29;20576;-78
2023/04/13 03:14:35;;;;;;;4.82;2.67;;;5.50;99.90;;;;;;4862140;29;20041;-78
2023/04/13 03:17:03;;;;;;;6.40;3.03;;;5.50;99.90;;;;;;4877557;29;20089;-78
2023/04/13 03:19:30;;;;;;;5.15;2.55;;;5.50;99.90;;;;;;4858334;29;20046;-78
2023/04/13 03:21:57;;;;;;;6.03;3.10;;;5.50;99.90;;;;;;4858997;29;20595;-78
2023/04/13 03:24:26;;;;;;;6.38;3.00;;;5.50;99.90;;;;;;4858166;29;20052;-78
2023/04/13 03:26:56;;;;;;;7.18;2.92;;;5.50;99.90;;;;;;4858759;29;20057;-78
2023/04/13 03:29:23;;;;;;;10.85;3.42;;;5.60;99.90;;;;;;4873630;29;20162;-78
2023/04/13 03:31:50;;;;;;;8.43;3.25;;;5.50;99.90;;;;;;4859194;29;20050;-78
2023/04/13 03:34:17;;;;;;;5.15;2.80;;;5.70;99.90;;;;;;4843679;29;20072;-78
2023/04/13 03:36:44;;;;;;;5.22;3.13;;;5.50;99.90;;;;;;4858775;29;20048;-78
2023/04/13 03:39:11;;;;;;;4.85;2.72;;;5.50;99.90;;;;;;4873852;29;20041;-78
2023/04/13 03:41:38;;;;;;;7.25;3.00;;;5.50;99.90;;;;;;4858530;29;20532;-78
2023/04/13 03:44:06;;;;;;;4.35;2.90;;;5.50;99.90;;;;;;4843395;29;20053;-78
2023/04/13 03:46:36;;;;;;;6.28;3.38;;;5.50;99.90;;;;;;4858307;29;20048;-78
2023/04/13 03:49:10;;;;;;;6.18;3.00;;;5.60;99.90;;;;;;4873207;29;20124;-78
2023/04/13 03:51:36;;;;;;;6.57;2.90;;;5.60;99.90;;;;;;4858580;29;20060;-78
2023/04/13 03:54:03;;;;;;;6.05;2.42;;;5.90;99.90;;;;;;4861092;29;20041;-77
2023/04/13 03:56:30;;;;;;;5.45;2.70;;;5.60;99.90;;;;;;4861512;29;20050;-78
2023/04/13 03:58:57;;;;;;;4.50;2.50;;;5.60;99.90;;;;;;4861904;29;20440;-78
2023/04/13 04:01:23;;;;;;;4.63;2.33;;;5.60;99.90;;;;;;4861656;29;20049;-78
2023/04/13 04:03:54;;;;;;;5.32;2.20;;;5.60;99.90;;;;;;4892228;29;20053;-78
2023/04/13 04:06:21;;;;;;;3.80;2.10;;;5.60;99.90;;;;;;4847654;29;20049;-78
2023/04/13 04:08:48;;;;;;;3.72;1.88;;;5.60;99.90;;;;;;4876623;29;20077;-78
2023/04/13 04:11:16;;;;;;;4.57;1.80;;;5.60;99.90;;;;;;4876509;29;20049;-78
2023/04/13 04:13:42;;;;;;;4.82;1.98;;;5.60;99.90;;;;;;4861962;29;20037;-78
2023/04/13 04:16:10;;;;;;;3.67;1.80;;;5.70;99.90;;;;;;4858524;29;20065;-78
2023/04/13 04:18:37;;;;;;;3.78;2.08;;;5.60;99.90;;;;;;4873560;29;20046;-78
2023/04/13 04:21:05;;;;;;;3.97;2.03;;;5.60;99.90;;;;;;4858428;29;20503;-78
2023/04/13 04:23:33;;;;;;;5.30;2.25;;;5.70;99.90;;;;;;4843675;29;20046;-78
2023/04/13 04:26:01;;;;;;;5.75;2.10;;;5.60;99.90;;;;;;4876742;29;20041;-78
2023/04/13 04:28:49;;;;;;;5.55;2.00;;;5.70;99.90;;;;;;4876913;29;20158;-78
2023/04/13 04:31:16;;;;;;;3.92;1.88;;;5.60;99.90;;;;;;4880596;29;20143;-78
2023/04/13 04:33:43;;;;;;;4.78;2.20;;;5.70;99.90;;;;;;4880373;29;20037;-78
2023/04/13 04:36:12;;;;;;;3.83;2.13;;;5.70;99.90;;;;;;4880410;29;20033;-79
2023/04/13 04:38:40;;;;;;;6.40;2.53;;;5.70;99.90;;;;;;4864539;29;20065;-78
2023/04/13 04:41:07;;;;;;;4.97;2.20;;;5.70;99.90;;;;;;4864587;29;20055;-78
2023/04/13 04:43:34;;;;;;;3.30;1.80;;;5.70;99.90;;;;;;4863883;29;20406;-78
2023/04/13 04:46:03;;;;;;;4.53;2.30;;;5.90;99.90;;;;;;4864121;29;20041;-78
2023/04/13 04:48:30;;;;;;;3.95;2.22;;;5.70;99.90;;;;;;4875947;29;20129;-78
2023/04/13 04:50:58;;;;;;;3.75;1.80;;;5.70;99.90;;;;;;4876211;29;20050;-78
2023/04/13 04:53:26;;;;;;;5.78;1.95;;;5.70;99.90;;;;;;4846628;29;20058;-78
2023/04/13 04:55:53;;;;;;;4.18;1.90;;;5.70;99.90;;;;;;4846366;29;20048;-78
2023/04/13 04:58:19;;;;;;;3.45;1.88;;;5.80;99.90;;;;;;4868577;29;20094;-78
2023/04/13 05:00:46;;;;;;;5.00;1.90;;;5.70;99.90;;;;;;4860852;29;20886;-78
2023/04/13 05:03:13;;;;;;;4.57;1.80;;;5.70;99.90;;;;;;4860708;29;20062;-78
2023/04/13 05:05:40;;;;;;;4.45;1.90;;;5.70;99.90;;;;;;4860775;29;20042;-78
2023/04/13 05:08:07;;;;;;;4.13;1.70;;;5.70;99.90;;;;;;4866076;29;20487;-78
2023/04/13 05:10:34;;;;;;;3.78;1.55;;;5.60;99.90;;;;;;4879166;29;20129;-78
2023/04/13 05:13:01;;;;;;;4.60;1.80;;;5.60;99.90;;;;;;4879047;29;20485;-78
2023/04/13 05:15:27;;;;;;;3.55;1.65;;;5.60;99.90;;;;;;4864309;29;20042;-78
2023/04/13 05:17:55;;;;;;;5.25;1.70;;;5.60;99.90;;;;;;4863904;29;20077;-78
2023/04/13 05:20:21;;;;;;;4.50;1.60;;;5.50;99.90;;;;;;4864471;29;20566;-78
2023/04/13 05:22:48;;;;;;;3.53;1.80;;;5.50;99.90;;;;;;4846914;29;20049;-78
2023/04/13 05:25:15;;;;;;;4.47;2.00;;;5.50;99.90;;;;;;4876018;29;20495;-79
2023/04/13 05:27:42;;;;;;;6.22;1.95;;;5.50;99.90;;;;;;4845815;29;20048;-78
2023/04/13 05:30:08;;;;;;;5.10;2.47;;;5.50;99.90;;;;;;4845724;29;20139;-78
2023/04/13 05:32:36;;;;;;;4.45;2.28;;;5.50;99.90;;;;;;4864879;29;20052;-78
2023/04/13 05:35:03;;;;;;;4.10;2.35;;;5.60;99.90;;;;;;4901842;29;20128;-78
2023/04/13 05:37:30;;;;;;;4.43;2.45;;;5.70;99.90;;;;;;4882328;29;20104;-78
2023/04/13 05:39:57;;;;;;;4.97;2.35;;;5.80;99.90;;;;;;4881896;29;20056;-78
2023/04/13 05:42:24;;;;;;;5.20;2.35;;;5.80;99.90;;;;;;4887861;29;20571;-78
2023/04/13 05:44:51;;;;;;;4.90;2.60;;;5.80;99.90;;;;;;4860031;29;20049;-78
2023/04/13 05:47:21;;;;;;;4.43;2.40;;;5.90;99.90;;;;;;4860012;29;20135;-79
2023/04/13 05:49:48;;;;;;;4.63;2.85;;;5.90;99.90;;;;;;4860107;29;20058;-84
2023/04/13 05:52:15;;;;;;;6.57;2.78;;;5.90;99.90;;;;;;4876407;29;20064;-85
2023/04/13 05:54:42;;;;;;;6.45;2.72;;;5.90;99.90;;;;;;4879772;29;20058;-86
2023/04/13 05:57:08;;;;;;;4.80;2.58;;;5.80;99.90;;;;;;4876472;29;20117;-86
2023/04/13 05:59:36;;;;;;;5.00;2.72;;;5.90;99.90;;;;;;4845667;29;20045;-83
2023/04/13 06:02:03;;;;;;;5.63;3.10;;;5.80;99.90;;;;;;4844921;29;20081;-83
2023/04/13 06:04:30;;;;;;;6.90;2.97;;;5.80;99.90;;;;;;4845365;29;20507;-83
2023/04/13 06:06:56;;;;;;;5.90;3.17;;;5.80;99.90;;;;;;4847479;29;20056;-83
2023/04/13 06:09:23;;;;;;;7.72;3.13;;;5.80;99.90;;;;;;4863662;29;20121;-83
2023/04/13 06:11:50;;;;;;;6.00;3.03;;;5.80;99.90;;;;;;4863108;29;20049;-84
2023/04/13 06:14:17;;;;;;;7.07;2.75;;;5.90;99.90;;;;;;4863595;29;20398;-82
2023/04/13 06:16:43;;;;;;;6.10;2.78;;;5.90;99.90;;;;;;4863678;29;20081;-82
2023/04/13 06:19:11;;;;;;;12.27;3.05;;;6.10;99.90;;;;;;4859854;29;20117;-82
2023/04/13 06:21:38;;;;;;;7.85;3.05;;;6.20;99.90;;;;;;4844987;29;20048;-82
2023/04/13 06:24:05;;;;;;;8.40;2.92;;;6.30;99.90;;;;;;4844634;29;20045;-82
2023/04/13 06:26:32;;;;;;;15.90;3.47;;;6.30;99.90;;;;;;4844768;29;20038;-83
2023/04/13 06:28:59;;;;;;;9.00;3.70;;;6.40;99.90;;;;;;4856059;29;20052;-83
2023/04/13 06:31:26;;;;;;;5.68;2.95;;;6.40;99.90;;;;;;4892326;29;20045;-82
2023/04/13 06:33:53;;;;;;;5.80;3.25;;;6.40;99.90;;;;;;4863980;29;20076;-82
2023/04/13 06:36:20;;;;;;;6.82;2.72;;;6.40;99.90;;;;;;4850738;29;20057;-82
2023/04/13 06:38:47;;;;;;;9.63;3.08;;;6.40;99.90;;;;;;4870336;29;20045;-82
2023/04/13 06:41:14;;;;;;;7.68;3.05;;;6.50;99.90;;;;;;4873030;29;20045;-83
2023/04/13 06:43:41;;;;;;;6.93;2.60;;;6.60;99.90;;;;;;4870824;29;20049;-83
2023/04/13 06:46:07;;;;;;;7.47;2.80;;;6.60;99.90;;;;;;4862212;29;20143;-83
2023/04/13 06:48:34;;;;;;;8.82;2.58;;;6.60;99.90;;;;;;4868561;29;20632;-83
2023/04/13 06:51:01;;;;;;;5.80;2.58;;;6.80;99.90;;;;;;4869319;29;20077;-83
2023/04/13 06:53:28;;;;;;;6.45;2.58;;;6.80;99.90;;;;;;4871921;29;20044;-83
2023/04/13 06:55:54;;;;;;;7.45;2.90;;;6.80;99.90;;;;;;4892293;29;20085;-83
2023/04/13 06:58:22;;;;;;;5.65;2.83;;;6.90;99.90;;;;;;4869642;29;20042;-84
2023/04/13 07:00:49;;;;;;;7.63;3.08;;;7.00;99.90;;;;;;4877792;29;20124;-83
2023/04/13 07:03:15;;;;;;;7.07;3.00;;;7.10;99.90;;;;;;4862270;29;20520;-82
2023/04/13 07:05:43;;;;;;;6.78;3.00;;;7.20;99.90;;;;;;4862445;29;20105;-84
2023/04/13 07:08:11;;;;;;;6.50;2.95;;;7.20;99.90;;;;;;4862210;29;20049;-83
2023/04/13 07:10:39;;;;;;;7.65;3.05;;;7.20;99.90;;;;;;4871037;29;20040;-83
2023/04/13 07:13:06;;;;;;;7.45;3.28;;;7.20;99.90;;;;;;4865235;29;20074;-84
2023/04/13 07:15:36;;;;;;;7.30;3.00;;;7.20;99.90;;;;;;4880784;29;20037;-84
2023/04/13 07:18:03;;;;;;;6.95;2.80;;;7.30;99.90;;;;;;4880525;29;20495;-84
2023/04/13 07:20:30;;;;;;;5.68;2.85;;;7.40;99.90;;;;;;4880701;29;20043;-84
2023/04/13 07:22:57;;;;;;;4.82;2.95;;;7.50;99.90;;;;;;4865148;29;20052;-84
2023/04/13 07:25:23;;;;;;;6.07;3.22;;;7.60;99.90;;;;;;4880865;29;20051;-84
2023/04/13 07:27:50;;;;;;;10.35;3.00;;;7.60;99.90;;;;;;4865294;29;20132;-84
2023/04/13 07:30:17;;;;;;;9.25;3.30;;;7.60;99.90;;;;;;4877246;29;20113;-84
2023/04/13 07:32:43;;;;;;;7.25;3.40;;;7.60;99.90;;;;;;4861321;29;20050;-83
2023/04/13 07:35:10;;;;;;;6.97;3.10;;;7.60;99.90;;;;;;4888993;29;20073;-84
2023/04/13 07:37:37;;;;;;;6.88;2.90;;;7.70;99.90;;;;;;4843728;29;20582;-84
2023/04/13 07:40:05;;;;;;;7.05;3.00;;;7.80;99.90;;;;;;4864914;29;20050;-84
2023/04/13 07:42:32;;;;;;;6.32;3.00;;;8.00;99.90;;;;;;4850540;29;20060;-84
2023/04/13 07:44:59;;;;;;;7.90;2.70;;;8.00;99.90;;;;;;4846769;29;20045;-84
2023/04/13 07:47:25;;;;;;;10.82;3.47;;;8.20;99.90;;;;;;4846796;29;20074;-84
2023/04/13 07:49:53;;;;;;;5.85;2.75;;;8.30;99.90;;;;;;4846789;29;20508;-83
2023/04/13 07:52:20;;;;;;;14.23;3.15;;;8.40;99.90;;;;;;4846792;29;20046;-83
2023/04/13 07:54:46;;;;;;;7.45;2.55;;;8.40;99.90;;;;;;4861988;29;20121;-85
2023/04/13 07:57:13;;;;;;;5.82;2.38;;;8.60;99.90;;;;;;4846914;29;20037;-84
2023/04/13 07:59:40;;;;;;;6.30;2.40;;;8.70;99.90;;;;;;4862171;29;20161;-85
2023/04/13 08:02:07;;;;;;;5.70;2.10;;;8.80;99.90;;;;;;4861800;29;20057;-84
2023/04/13 08:04:34;;;;;;;6.75;2.38;;;8.80;99.90;;;;;;4846427;29;20046;-84
2023/04/13 08:07:06;;;;;;;5.80;2.50;;;8.70;99.90;;;;;;4849299;29;20198;-83
2023/04/13 08:09:39;;;;;;;5.55;2.30;;;8.70;99.90;;;;;;4865518;29;20045;-83
2023/04/13 08:12:07;;;;;;;8.77;2.60;;;8.80;99.90;;;;;;4882719;29;20064;-83
2023/04/13 08:14:34;;;;;;;7.50;2.28;;;8.90;99.90;;;;;;4876253;29;20041;-84
2023/04/13 08:17:02;;;;;;;4.32;2.00;;;8.90;99.90;;;;;;4867439;29;20040;-84
2023/04/13 08:19:29;;;;;;;7.78;2.13;;;8.80;99.90;;;;;;4870129;29;20048;-84
2023/04/13 08:21:57;;;;;;;5.13;2.05;;;8.70;99.90;;;;;;4865081;29;20049;-84
2023/04/13 08:24:24;;;;;;;4.35;1.73;;;8.70;99.90;;;;;;4880501;29;20049;-84
2023/04/13 08:26:53;;;;;;;6.43;2.00;;;8.80;99.90;;;;;;4880142;29;20088;-84
2023/04/13 08:29:21;;;;;;;8.00;1.95;;;8.90;99.90;;;;;;4865156;29;20177;-84
2023/04/13 08:31:48;;;;;;;7.43;2.00;;;8.90;99.90;;;;;;4865064;29;20495;-84
2023/04/13 08:34:16;;;;;;;7.30;1.95;;;8.90;99.90;;;;;;4883877;29;20064;-84
2023/04/13 08:36:44;;;;;;;6.57;1.73;;;8.90;99.90;;;;;;4876189;29;20041;-84
2023/04/13 08:39:12;;;;;;;5.55;2.20;;;8.90;99.90;;;;;;4883412;29;20034;-84
2023/04/13 08:41:42;;;;;;;4.57;1.80;;;8.90;99.90;;;;;;4869368;29;20419;-83
2023/04/13 08:44:10;;;;;;;7.40;1.40;;;9.00;99.90;;;;;;4899757;29;20051;-83
2023/04/13 08:46:38;;;;;;;6.78;2.00;;;9.10;99.90;;;;;;4864159;29;20163;-83
2023/04/13 08:49:08;;;;;;;3.97;1.55;;;9.20;99.90;;;;;;4864296;29;20065;-83
2023/04/13 08:51:35;;;;;;;5.00;1.88;;;9.30;99.90;;;;;;4895014;29;20475;-83
2023/04/13 08:54:02;;;;;;;4.07;1.27;;;9.20;99.90;;;;;;4849470;29;20077;-84
2023/04/13 08:56:29;;;;;;;3.72;1.73;;;9.20;99.90;;;;;;4866583;29;20084;-83
2023/04/13 08:59:06;;;;;;;6.10;1.35;;;9.20;99.90;;;;;;4889384;29;20122;-83
2023/04/13 09:01:36;;;;;;;5.45;1.38;;;9.20;99.90;;;;;;4892982;29;20101;-84
2023/04/13 09:04:10;;;;;;;3.35;1.60;;;9.20;99.90;;;;;;4897710;29;20053;-84
2023/04/13 09:06:39;;;;;;;4.30;1.40;;;9.20;99.90;;;;;;4882821;29;20044;-84
2023/04/13 09:09:09;;;;;;;3.45;1.45;;;9.20;99.90;;;;;;4891041;29;20090;-83
2023/04/13 09:11:36;;;;;;;4.30;1.48;;;9.00;99.90;;;;;;4876442;29;20128;-84
2023/04/13 09:14:03;;;;;;;4.65;1.60;;;8.90;99.90;;;;;;4884898;29;20034;-83
2023/04/13 09:16:38;;;;;;;3.72;1.50;;;8.80;99.90;;;;;;4860708;29;20049;-83
2023/04/13 09:19:05;;;;;;;5.63;1.73;;;8.70;99.90;;;;;;4860048;29;20037;-83
2023/04/13 09:21:43;;;;;;;5.30;1.60;;;8.60;99.90;;;;;;4860682;29;20128;-82
2023/04/13 09:24:11;;;;;;;2.88;1.50;;;8.60;99.90;;;;;;4887619;29;20570;-83
2023/04/13 09:26:42;;;;;;;3.78;1.73;;;8.50;99.90;;;;;;4863840;29;20046;-83
2023/04/13 09:29:12;;;;;;;3.63;1.40;;;8.40;99.90;;;;;;4894500;29;20475;-84
2023/04/13 09:31:39;;;;;;;2.53;1.17;;;8.20;99.90;;;;;;4894567;29;20464;-84
2023/04/13 09:34:07;;;;;;;3.28;1.30;;;8.20;99.90;;;;;;4863718;29;20042;-83
2023/04/13 09:36:33;;;;;;;2.45;0.90;;;8.10;99.90;;;;;;4863800;29;20507;-84
2023/04/13 09:39:01;;;;;;;1.73;0.98;;;8.20;99.90;;;;;;4863705;29;20053;-84
2023/04/13 09:41:33;;;;;;;3.00;1.08;;;8.30;99.90;;;;;;4863669;29;20513;-84
2023/04/13 09:44:19;;;;;;;5.60;1.50;;;8.50;99.90;;;;;;4878772;29;20132;-84
2023/04/13 09:47:02;;;;;;;;;;;8.70;99.90;;;;;;4879148;29;20053;-83
2023/04/13 09:49:41;;;;;;;1.75;0.70;;;8.90;99.90;;;;;;4878897;29;19923;-84
2023/04/13 09:52:22;;;;;;;2.75;0.73;;;9.00;99.90;;;;;;4878609;29;20510;-84
2023/04/13 09:54:53;;;;;;;1.02;0.70;;;9.10;99.90;;;;;;4852906;29;20410;-83
2023/04/13 09:57:30;;;;;;;0.85;0.60;;;9.20;99.90;;;;;;4860153;29;20046;-83
2023/04/13 09:59:59;;;;;;;1.10;0.68;;;9.30;99.90;;;;;;4860247;29;20122;-84
2023/04/13 10:02:26;;;;;;;1.60;0.68;;;9.40;99.90;;;;;;4863591;29;20594;-84
2023/04/13 10:04:53;;;;;;;1.55;0.60;;;9.60;99.90;;;;;;4871411;29;20164;-84
2023/04/13 10:07:25;;;;;;;1.50;0.80;;;9.90;99.90;;;;;;4864024;29;20140;-84
2023/04/13 10:09:53;;;;;;;3.28;0.90;;;10.10;99.90;;;;;;4863874;29;20052;-84
2023/04/13 10:12:21;;;;;;;3.15;0.90;;;10.20;99.90;;;;;;4878376;29;20046;-84
2023/04/13 10:14:50;;;;;;;2.55;1.10;;;10.30;99.90;;;;;;4883522;29;20494;-84
2023/04/13 10:17:34;;;;;;;1.98;0.98;;;10.30;99.90;;;;;;4894322;29;20049;-84
2023/04/13 10:20:09;;;;;;;2.67;1.05;;;10.30;99.90;;;;;;4877933;29;20049;-84
2023/04/13 10:22:37;;;;;;;3.10;0.80;;;10.40;99.90;;;;;;4867949;29;20139;-84
2023/04/13 10:25:06;;;;;;;1.40;0.60;;;10.60;99.90;;;;;;4896713;29;20049;-84
2023/04/13 10:27:35;;;;;;;1.05;0.60;;;10.50;99.90;;;;;;4896916;29;20136;-84
2023/04/13 10:30:13;;;;;;;2.35;0.80;;;10.20;99.90;;;;;;4866715;29;20084;-84
2023/04/13 10:32:41;;;;;;;2.58;1.00;;;9.90;99.90;;;;;;4896587;29;20511;-84
2023/04/13 10:35:10;;;;;;;3.72;1.05;;;9.60;99.90;;;;;;4896811;29;20044;-84
2023/04/13 10:37:39;;;;;;;1.38;0.70;;;9.20;99.90;;;;;;4896735;29;20053;-84
2023/04/13 10:40:12;;;;;;;1.75;0.60;;;8.80;99.90;;;;;;4867623;29;20180;-83
2023/04/13 10:42:45;;;;;;;0.63;0.40;;;8.50;99.90;;;;;;4878181;29;20145;-84
2023/04/13 10:45:24;;;;;;;3.53;0.60;;;8.10;99.90;;;;;;4862757;29;20040;-84
2023/04/13 10:47:57;;;;;;;3.25;0.85;;;7.80;99.90;;;;;;4877757;29;20509;-84
2023/04/13 10:50:26;;;;;;;2.85;0.80;;;7.70;99.90;;;;;;4877521;29;20511;-85
2023/04/13 10:53:11;;;;;;;2.38;0.60;;;7.70;99.90;;;;;;4862844;29;20082;-84
2023/04/13 10:55:38;;;;;;;1.77;0.57;;;7.70;99.90;;;;;;4862752;29;20045;-85
2023/04/13 10:58:18;;;;;;;2.00;0.70;;;7.70;99.90;;;;;;4863009;29;20153;-85
2023/04/13 11:00:46;;;;;;;0.90;0.60;;;7.70;99.90;;;;;;4877464;29;20101;-85
2023/04/13 11:03:14;;;;;;;3.05;0.88;;;7.70;99.90;;;;;;4877400;29;20494;-84
2023/04/13 11:05:41;;;;;;;1.00;0.60;;;7.70;99.90;;;;;;4877520;29;20483;-84
2023/04/13 11:08:08;;;;;;;1.67;0.50;;;7.60;99.90;;;;;;4862378;29;20140;-84
2023/04/13 11:10:35;;;;;;;2.65;0.60;;;7.50;99.90;;;;;;4859136;29;20038;-85
2023/04/13 11:13:01;;;;;;;2.00;0.50;;;7.50;99.90;;;;;;4864418;29;20417;-85
2023/04/13 11:15:29;;;;;;;0.68;0.50;;;7.40;99.90;;;;;;4865964;29;20050;-85
2023/04/13 11:17:57;;;;;;;1.20;0.60;;;7.40;99.90;;;;;;4862676;29;20045;-84
2023/04/13 11:20:38;;;;;;;1.48;0.57;;;7.50;99.90;;;;;;4877250;29;20074;-84
2023/04/13 11:23:17;;;;;;;1.33;0.70;;;7.50;99.90;;;;;;4877207;29;20881;-85
2023/04/13 11:25:54;;;;;;;3.42;0.93;;;7.60;99.90;;;;;;4892661;29;20535;-84
2023/04/13 11:28:22;;;;;;;1.67;0.70;;;7.70;99.90;;;;;;4877252;29;20093;-85
2023/04/13 11:30:55;;;;;;;4.07;1.02;;;7.80;99.90;;;;;;4877325;29;20157;-85
2023/04/13 11:33:27;;;;;;;3.95;1.00;;;8.00;99.90;;;;;;4861662;29;20403;-84
2023/04/13 11:35:55;;;;;;;6.30;1.10;;;8.10;99.90;;;;;;4864423;29;20047;-84
2023/04/13 11:38:23;;;;;;;7.35;1.42;;;8.30;99.90;;;;;;4895284;29;20120;-84
2023/04/13 11:41:02;;;;;;;7.50;1.58;;;8.40;99.90;;;;;;4895190;29;20053;-85
2023/04/13 11:43:29;;;;;;;8.85;1.48;;;8.60;99.90;;;;;;4858693;29;20113;-84
2023/04/13 11:45:56;;;;;;;4.55;1.38;;;8.80;99.90;;;;;;4849700;29;20090;-82
2023/04/13 11:48:23;;;;;;;7.55;1.92;;;9.00;99.90;;;;;;4858376;29;20046;-82
2023/04/13 11:50:50;;;;;;;7.47;1.60;;;9.10;99.90;;;;;;4858624;29;20046;-82
2023/04/13 11:53:17;;;;;;;7.95;1.63;;;9.30;99.90;;;;;;4843461;29;20046;-82
2023/04/13 11:55:45;;;;;;;11.18;1.50;;;9.50;99.90;;;;;;4862238;29;20046;-82
2023/04/13 11:58:16;;;;;;;9.18;1.88;;;9.90;99.90;;;;;;4880423;29;20045;-82
2023/04/13 12:00:43;;;;;;;5.38;1.58;;;10.00;99.90;;;;;;4895771;29;20045;-82
2023/04/13 12:03:15;;;;;;;5.18;1.80;;;10.00;99.90;;;;;;4880442;29;20443;-82
2023/04/13 12:05:43;;;;;;;8.35;1.67;;;9.90;99.90;;;;;;4895171;29;20529;-82
2023/04/13 12:08:22;;;;;;;8.48;1.77;;;9.90;99.90;;;;;;4895568;29;20049;-82
2023/04/13 12:10:57;;;;;;;4.63;1.45;;;9.80;99.90;;;;;;4895253;29;20494;-82
2023/04/13 12:13:23;;;;;;;7.75;1.88;;;9.80;99.90;;;;;;4902808;29;20458;-82
2023/04/13 12:15:51;;;;;;;5.43;1.27;;;10.00;99.90;;;;;;4870522;29;20164;-83
2023/04/13 12:18:19;;;;;;;9.70;1.60;;;10.20;99.90;;;;;;4864714;29;20033;-82
2023/04/13 12:20:47;;;;;;;8.40;1.50;;;10.30;99.90;;;;;;4878942;29;20041;-83
2023/04/13 12:23:23;;;;;;;7.80;1.30;;;10.30;99.90;;;;;;4848544;29;20500;-82
2023/04/13 12:26:03;;;;;;;4.30;1.00;;;10.20;99.90;;;;;;4873084;29;20045;-82
2023/04/13 12:28:34;;;;;;;9.38;2.13;;;10.20;99.90;;;;;;4880474;29;20884;-83
2023/04/13 12:31:07;;;;;;;4.65;1.05;;;10.20;99.90;;;;;;4910751;29;20104;-82
2023/04/13 12:33:35;;;;;;;7.80;1.65;;;10.20;99.90;;;;;;4867602;29;20628;-83
2023/04/13 12:36:02;;;;;;;5.53;1.25;;;10.20;99.90;;;;;;4882015;29;20407;-82
2023/04/13 12:38:28;;;;;;;11.68;1.90;;;10.20;99.90;;;;;;4876515;29;20128;-82
2023/04/13 12:41:00;;;;;;;5.93;1.75;;;10.30;99.90;;;;;;4861188;29;20178;-82
2023/04/13 12:43:27;;;;;;;7.22;1.40;;;10.40;99.90;;;;;;4882040;29;20052;-83
2023/04/13 12:45:55;;;;;;;6.82;1.33;;;10.40;99.90;;;;;;4856353;29;20045;-83
2023/04/13 12:48:21;;;;;;;7.10;1.70;;;10.50;99.90;;;;;;4876350;29;20050;-82
2023/04/13 12:50:48;;;;;;;4.72;1.25;;;10.50;99.90;;;;;;4876021;29;20076;-82
2023/04/13 12:53:15;;;;;;;5.82;1.25;;;10.40;99.90;;;;;;4878996;29;20806;-82
2023/04/13 12:55:42;;;;;;;3.78;1.02;;;10.40;99.90;;;;;;4864338;29;20041;-83
2023/04/13 12:58:10;;;;;;;5.97;1.30;;;10.30;99.90;;;;;;4876710;29;20050;-82
2023/04/13 13:00:36;;;;;;;8.93;1.45;;;10.30;99.90;;;;;;4876463;29;20511;-82
2023/04/13 13:03:04;;;;;;;4.53;1.30;;;10.20;99.90;;;;;;4861056;29;20046;-83
2023/04/13 13:05:30;;;;;;;7.72;1.52;;;10.20;99.90;;;;;;4860987;29;20041;-82